createdAt,value
2023-03-15T00:05:00.428Z,57.70
2023-03-15T00:10:04.363Z,57.80
2023-03-15T00:15:08.726Z,57.80
2023-03-15T00:20:15.080Z,57.70
2023-03-15T00:25:18.500Z,57.70
2023-03-15T00:30:21.876Z,57.80
2023-03-15T00:35:26.837Z,57.80
2023-03-15T00:40:30.151Z,57.70
2023-03-15T00:45:34.519Z,57.60
2023-03-15T00:50:39.226Z,57.70
2023-03-15T00:55:42.604Z,57.50
2023-03-15T01:00:45.932Z,57.50
2023-03-15T01:05:50.708Z,57.50
2023-03-15T01:10:54.017Z,57.40
2023-03-15T01:15:58.506Z,57.30
2023-03-15T01:21:03.228Z,57.40
2023-03-15T01:26:09.806Z,57.30
2023-03-15T01:31:18.839Z,57.20
2023-03-15T01:36:24.012Z,57.50
2023-03-15T01:41:27.503Z,57.80
2023-03-15T01:46:34.496Z,57.90
2023-03-15T01:52:02.677Z,58.00
2023-03-15T01:57:28.334Z,57.90
2023-03-15T02:02:33.061Z,57.80
2023-03-15T02:07:40.442Z,57.70
2023-03-15T02:12:48.286Z,57.70
2023-03-15T02:17:52.078Z,57.70
2023-03-15T02:22:59.263Z,57.70
2023-03-15T02:28:07.347Z,57.90
2023-03-15T02:33:19.175Z,57.80
2023-03-15T02:38:23.681Z,57.90
2023-03-15T02:43:32.448Z,57.70
2023-03-15T02:48:37.492Z,57.90
2023-03-15T02:53:41.350Z,57.80
2023-03-15T02:58:48.348Z,57.80
2023-03-15T03:03:51.992Z,57.90
2023-03-15T03:08:56.332Z,57.80
2023-03-15T03:14:01.768Z,57.80
2023-03-15T03:19:06.108Z,57.90
2023-03-15T03:24:10.918Z,57.90
2023-03-15T03:29:17.093Z,57.90
2023-03-15T03:34:23.687Z,58.00
2023-03-15T03:39:27.916Z,57.80
2023-03-15T03:44:32.696Z,57.90
2023-03-15T03:49:37.401Z,57.90
2023-03-15T03:54:42.734Z,57.90
2023-03-15T03:59:47.574Z,57.80
2023-03-15T04:04:51.381Z,57.70
2023-03-15T04:09:57.272Z,57.70
2023-03-15T04:15:02.376Z,57.50
2023-03-15T04:20:11.948Z,57.40
2023-03-15T04:25:18.650Z,57.20
2023-03-15T04:30:50.280Z,57.10
2023-03-15T04:36:19.112Z,56.90
2023-03-15T04:41:40.731Z,57.00
2023-03-15T04:46:52.222Z,56.90
2023-03-15T04:52:15.816Z,56.80
2023-03-15T04:57:21.937Z,56.70
2023-03-15T05:02:41.811Z,56.70
2023-03-15T05:07:48.393Z,56.60
2023-03-15T05:13:10.271Z,56.50
2023-03-15T05:18:28.326Z,56.60
2023-03-15T05:23:51.646Z,56.40
2023-03-15T05:29:13.195Z,56.50
2023-03-15T05:34:38.122Z,56.40
2023-03-15T05:39:54.433Z,56.40
2023-03-15T05:45:16.921Z,56.50
2023-03-15T05:50:34.193Z,56.50
2023-03-15T05:56:15.969Z,56.40
2023-03-15T06:01:42.442Z,56.50
2023-03-15T06:06:55.142Z,56.40
2023-03-15T06:11:59.906Z,56.20
2023-03-15T06:17:03.408Z,56.30
2023-03-15T06:22:09.645Z,61.20
2023-03-15T06:27:24.404Z,64.00
2023-03-15T06:32:31.095Z,60.00
2023-03-15T06:37:37.174Z,58.60
2023-03-15T06:42:41.777Z,57.50
2023-03-15T06:47:47.843Z,57.00
2023-03-15T06:52:54.297Z,56.50
2023-03-15T06:57:58.006Z,56.30
2023-03-15T07:03:01.449Z,56.20
2023-03-15T07:08:06.659Z,55.90
2023-03-15T07:13:10.326Z,55.80
2023-03-15T07:18:14.128Z,55.80
2023-03-15T07:23:19.362Z,55.80
2023-03-15T07:28:23.017Z,55.50
2023-03-15T07:33:27.793Z,55.50
2023-03-15T07:38:33.131Z,55.50
2023-03-15T07:43:36.786Z,55.30
2023-03-15T07:48:50.697Z,55.40
2023-03-15T07:53:55.474Z,55.30
2023-03-15T07:58:59.120Z,55.20
2023-03-15T08:04:02.536Z,55.80
2023-03-15T08:09:07.329Z,55.50
2023-03-15T08:14:10.745Z,55.20
2023-03-15T08:19:14.665Z,55.20
2023-03-15T08:24:19.441Z,55.30
2023-03-15T08:29:22.783Z,55.20
2023-03-15T08:34:26.589Z,55.40
2023-03-15T08:39:31.381Z,55.40
2023-03-15T08:44:36.274Z,55.30
2023-03-15T08:49:39.802Z,55.20
2023-03-15T08:54:44.791Z,55.30
2023-03-15T08:59:48.138Z,55.20
2023-03-15T09:04:53.383Z,55.20
2023-03-15T09:09:58.329Z,55.30
2023-03-15T09:15:01.711Z,55.00
2023-03-15T09:20:08.961Z,55.10
2023-03-15T09:25:13.946Z,55.10
2023-03-15T09:30:17.738Z,55.00
2023-03-15T09:35:23.009Z,55.00
2023-03-15T09:40:30.821Z,54.80
2023-03-15T09:45:50.328Z,54.30
2023-03-15T09:51:01.040Z,53.40
2023-03-15T09:56:11.248Z,53.90
2023-03-15T10:01:16.436Z,53.90
2023-03-15T10:06:24.438Z,53.80
2023-03-15T10:11:41.024Z,53.60
2023-03-15T10:16:46.385Z,52.80
2023-03-15T10:21:56.838Z,53.40
2023-03-15T10:27:15.373Z,52.70
2023-03-15T10:32:21.770Z,52.80
2023-03-15T10:37:25.822Z,53.10
2023-03-15T10:42:32.577Z,53.10
2023-03-15T10:47:50.408Z,52.60
2023-03-15T10:52:56.698Z,57.90
2023-03-15T10:58:15.812Z,58.20
2023-03-15T11:03:21.296Z,60.10
2023-03-15T11:08:26.977Z,57.90
2023-03-15T11:13:33.564Z,57.40
2023-03-15T11:18:44.575Z,57.30
2023-03-15T11:23:50.188Z,55.70
2023-03-15T11:28:59.761Z,58.30
2023-03-15T11:34:09.145Z,56.90
2023-03-15T11:39:16.792Z,55.30
2023-03-15T11:44:29.878Z,53.50
2023-03-15T11:49:38.815Z,52.80
2023-03-15T11:54:42.216Z,53.40
2023-03-15T11:59:47.398Z,53.30
2023-03-15T12:04:51.021Z,53.70
2023-03-15T12:09:56.472Z,52.00
2023-03-15T12:15:07.148Z,52.30
2023-03-15T12:20:19.773Z,52.20
2023-03-15T12:25:33.873Z,52.30
2023-03-15T12:30:42.605Z,51.50
2023-03-15T12:35:46.343Z,52.20
2023-03-15T12:40:53.997Z,52.40
2023-03-15T12:45:59.057Z,52.20
2023-03-15T12:51:10.764Z,52.30
2023-03-15T12:56:47.589Z,52.30
2023-03-15T13:01:53.036Z,49.90
2023-03-15T13:07:25.864Z,50.80
2023-03-15T13:12:33.205Z,49.70
2023-03-15T13:17:46.197Z,49.60
2023-03-15T13:22:56.520Z,48.20
2023-03-15T13:28:04.056Z,48.10
2023-03-15T13:33:15.284Z,48.20
2023-03-15T13:38:27.598Z,46.60
2023-03-15T13:43:33.538Z,46.20
2023-03-15T13:48:42.050Z,46.90
2023-03-15T13:53:50.125Z,46.70
2023-03-15T13:58:53.941Z,47.00
2023-03-15T14:04:02.961Z,47.10
2023-03-15T14:09:12.739Z,46.50
2023-03-15T14:14:23.697Z,46.40
2023-03-15T14:19:31.481Z,45.90
2023-03-15T14:24:38.119Z,46.10
2023-03-15T14:29:48.397Z,46.20
2023-03-15T14:35:00.898Z,45.50
2023-03-15T14:40:17.014Z,45.40
2023-03-15T14:45:22.521Z,45.90
2023-03-15T14:50:29.170Z,46.30
2023-03-15T14:55:35.575Z,46.10
2023-03-15T15:00:40.471Z,46.40
2023-03-15T15:05:45.600Z,46.50
2023-03-15T15:10:51.604Z,46.20
2023-03-15T15:15:56.706Z,46.30
2023-03-15T15:21:04.207Z,46.40
2023-03-15T15:26:14.980Z,46.20
2023-03-15T15:31:22.840Z,46.60
2023-03-15T15:36:32.226Z,46.60
2023-03-15T15:41:37.044Z,46.50
2023-03-15T15:46:40.943Z,46.90
2023-03-15T15:51:49.116Z,46.90
2023-03-15T15:56:54.581Z,46.80
2023-03-15T16:02:01.790Z,47.00
2023-03-15T16:07:08.720Z,47.00
2023-03-15T16:12:15.625Z,46.70
2023-03-15T16:17:21.681Z,46.60
2023-03-15T16:22:27.211Z,46.70
2023-03-15T16:27:32.781Z,46.80
2023-03-15T16:32:44.430Z,47.00
2023-03-15T16:37:56.706Z,47.10
2023-03-15T16:43:02.305Z,46.80
2023-03-15T16:48:15.827Z,47.30
2023-03-15T16:53:25.878Z,47.20
2023-03-15T16:58:30.665Z,47.00
2023-03-15T17:03:35.774Z,47.10
2023-03-15T17:08:45.634Z,47.10
2023-03-15T17:13:49.920Z,47.00
2023-03-15T17:18:56.073Z,46.90
2023-03-15T17:24:03.769Z,47.10
2023-03-15T17:29:09.307Z,47.70
2023-03-15T17:34:13.939Z,48.10
2023-03-15T17:39:29.418Z,48.50
2023-03-15T17:44:34.629Z,48.80
2023-03-15T17:49:41.220Z,49.00
2023-03-15T17:54:48.468Z,49.10
2023-03-15T17:59:53.691Z,49.30
2023-03-15T18:05:01.120Z,49.50
2023-03-15T18:10:10.012Z,49.60
2023-03-15T18:15:15.720Z,49.90
2023-03-15T18:20:22.853Z,49.90
2023-03-15T18:25:33.853Z,50.10
2023-03-15T18:30:40.730Z,50.20
2023-03-15T18:35:46.615Z,50.30
2023-03-15T18:40:56.207Z,50.50
2023-03-15T18:46:11.222Z,50.70
2023-03-15T18:51:18.717Z,50.70
2023-03-15T18:56:26.614Z,52.20
2023-03-15T19:01:36.679Z,51.30
2023-03-15T19:06:42.569Z,51.10
2023-03-15T19:11:57.793Z,51.00
2023-03-15T19:17:02.986Z,51.00
2023-03-15T19:22:08.581Z,51.00
2023-03-15T19:27:19.078Z,50.90
2023-03-15T19:32:25.524Z,50.90
2023-03-15T19:37:34.493Z,50.80
2023-03-15T19:42:42.347Z,50.90
2023-03-15T19:47:50.741Z,50.90
2023-03-15T19:53:00.397Z,51.00
2023-03-15T19:58:10.477Z,50.90
2023-03-15T20:03:17.293Z,51.10
2023-03-15T20:08:25.355Z,51.10
2023-03-15T20:13:34.319Z,51.00
2023-03-15T20:18:39.985Z,51.10
2023-03-15T20:23:49.987Z,51.10
2023-03-15T20:29:13.760Z,51.10
2023-03-15T20:34:21.637Z,51.20
2023-03-15T20:39:27.147Z,51.00
2023-03-15T20:44:43.116Z,51.00
2023-03-15T20:49:50.714Z,51.10
2023-03-15T20:54:57.458Z,51.10
2023-03-15T21:00:13.284Z,51.10
2023-03-15T21:05:19.386Z,51.10
2023-03-15T21:10:25.674Z,51.20
2023-03-15T21:15:33.361Z,51.20
2023-03-15T21:20:38.217Z,51.20
2023-03-15T21:25:42.292Z,51.10
2023-03-15T21:30:48.857Z,51.20
2023-03-15T21:35:53.605Z,51.20
2023-03-15T21:40:59.461Z,51.20
2023-03-15T21:46:07.474Z,51.20
2023-03-15T21:51:14.690Z,51.20
2023-03-15T21:56:19.050Z,51.20
2023-03-15T22:01:25.628Z,51.30
2023-03-15T22:06:29.288Z,51.40
2023-03-15T22:11:33.969Z,51.50
2023-03-15T22:16:39.241Z,51.40
2023-03-15T22:21:42.730Z,51.60
2023-03-15T22:26:46.302Z,51.60
2023-03-15T22:31:51.669Z,51.60
2023-03-15T22:36:55.061Z,51.60
2023-03-15T22:41:58.529Z,51.60
2023-03-15T22:47:03.290Z,51.80
2023-03-15T22:52:07.232Z,52.00
2023-03-15T22:57:11.475Z,52.00
2023-03-15T23:02:16.262Z,52.20
2023-03-15T23:07:20.302Z,52.60
2023-03-15T23:12:33.752Z,52.30
2023-03-15T23:17:40.260Z,52.40
2023-03-15T23:22:43.715Z,52.80
2023-03-15T23:27:47.309Z,52.80
2023-03-15T23:32:57.640Z,52.90
2023-03-15T23:38:01.931Z,53.10
2023-03-15T23:43:05.982Z,53.10
2023-03-15T23:48:12.561Z,53.20
2023-03-15T23:53:15.970Z,53.40
2023-03-15T23:58:19.821Z,53.50
